Bert Mooney Airport
KBTM : now visible

Airfield :











YOU CAN JOIN US ON...

 
LOGIN :

Register | Disclaimer

   EN    FR    IT 

 









Legend :    VFR   Marginal VFR   IFR   Intensive IFR   Very Intensive IFR
Visi :
Ceiling :
>= 8 km
>= 3000ft
5 to 8 km
1000 to 3000 ft
1500m to 5 km
500 to 1000 ft
800 to 1500m
200 to 500 ft
< 800m
< 200 ft
Symbols :   Thunderstorms  Fog  Heavy snow  Heavy precipitations  Wind > 20 kt






- Airport Elevation : 5550 ft
- IATA code : BTM


KBTM - Bert Mooney

CURRENT METAR :
  • 240917Z AUTO 02010KT 1 3/4SM -SN BR FEW007 BKN012 OVC022 M03/M06 A2978 RMK AO2 P0001 T10331056

EXPIRED METARs :
  • 240905Z AUTO 03006KT 2 1/2SM -SN BR BKN012 OVC022 M03/M05 A2977 RMK AO2 P0001 T10281050
  • 240853Z AUTO 00000KT 4SM -SN BR BKN014 BKN022 OVC031 M03/M04 A2977 RMK AO2 SLP110 P0001 60006 T10281044 55002
  • 240848Z AUTO 15003KT 3SM -SN BR SCT016 BKN022 OVC031 M03/M04 A2976 RMK AO2 P0001
  • 240753Z AUTO 16005KT 1 1/4SM -SN BR OVC015 M03/M04 A2976 RMK AO2 SLP108 P0002 T10281044
  • 240742Z AUTO 15004KT 1 1/2SM -SN BR OVC015 M03/M04 A2975 RMK AO2 P0001 T10281044

TAF KBTM
Valid from the 24 at 06:00 until the 25 at 06:00 UTC


240543Z 2406/2506 15006KT 1SM -SN SCT005 OVC025
FM240800 18006KT 1/2SM SN FZFG VV010
FM241100 34010G20KT 3/4SM -SN BR VV008
FM241200 34012KT 3/4SM -SN BR BKN010 OVC020
FM241400 34010KT 1SM -SN BR BKN016 OVC025
FM241700 03010KT P6SM -SN OVC030
KZLC FIR / North America



MET'MAP, your aeronautical weather chart ! - Copyright ORBIFLY December 2007 - Disclaimer

ORBIFLY MET'MAP TEAM :

Programming & Development : Alexandra Zaïnal
Concept & original design : Baudouin d'Aumeries
Assistance for programming : Marc-Olivier Méhu
Technical & hardware support : Manuel Goepfert

Contact : metmap@orbifly.com




SOURCES & CREDITS :

   NOAA       Earth
Advisory